sensor_id;sensor_type;location;lat;lon;timestamp;pressure;altitude;pressure_sealevel;temperature;humidity
62617;BME280;62539;51.190;6.808;2023-02-23T00:01:48;100927.56;;;20.06;53.21
62617;BME280;62539;51.190;6.808;2023-02-23T00:04:14;100924.13;;;20.04;53.05
62617;BME280;62539;51.190;6.808;2023-02-23T00:06:39;100929.41;;;20.04;53.36
62617;BME280;62539;51.190;6.808;2023-02-23T00:09:05;100925.06;;;20.03;53.26
62617;BME280;62539;51.190;6.808;2023-02-23T00:11:36;100922.53;;;20.00;53.26
62617;BME280;62539;51.190;6.808;2023-02-23T00:14:02;100927.81;;;20.00;53.32
62617;BME280;62539;51.190;6.808;2023-02-23T00:16:27;100927.88;;;19.98;53.50
62617;BME280;62539;51.190;6.808;2023-02-23T00:18:55;100923.53;;;19.97;53.35
62617;BME280;62539;51.190;6.808;2023-02-23T00:21:25;100915.66;;;19.95;53.45
62617;BME280;62539;51.190;6.808;2023-02-23T00:24:01;100917.50;;;19.93;53.45
62617;BME280;62539;51.190;6.808;2023-02-23T00:26:30;100924.56;;;19.93;53.42
62617;BME280;62539;51.190;6.808;2023-02-23T00:29:10;100921.13;;;19.91;53.49
62617;BME280;62539;51.190;6.808;2023-02-23T00:31:40;100922.94;;;19.89;53.75
62617;BME280;62539;51.190;6.808;2023-02-23T00:34:09;100923.84;;;19.88;53.52
62617;BME280;62539;51.190;6.808;2023-02-23T00:36:36;100920.34;;;19.87;53.73
62617;BME280;62539;51.190;6.808;2023-02-23T00:39:05;100926.50;;;19.86;53.69
62617;BME280;62539;51.190;6.808;2023-02-23T00:41:43;100923.97;;;19.85;53.59
62617;BME280;62539;51.190;6.808;2023-02-23T00:44:09;100917.81;;;19.84;53.69
62617;BME280;62539;51.190;6.808;2023-02-23T00:46:34;100916.97;;;19.83;53.69
62617;BME280;62539;51.190;6.808;2023-02-23T00:49:00;100920.56;;;19.81;53.77
62617;BME280;62539;51.190;6.808;2023-02-23T00:51:27;100923.19;;;19.81;53.59
62617;BME280;62539;51.190;6.808;2023-02-23T00:53:57;100919.75;;;19.79;53.76
62617;BME280;62539;51.190;6.808;2023-02-23T00:56:24;100918.03;;;19.78;53.79
62617;BME280;62539;51.190;6.808;2023-02-23T00:58:50;100912.78;;;19.78;53.80
62617;BME280;62539;51.190;6.808;2023-02-23T01:01:16;100919.84;;;19.77;53.82
62617;BME280;62539;51.190;6.808;2023-02-23T01:03:43;100917.25;;;19.76;53.84
62617;BME280;62539;51.190;6.808;2023-02-23T01:06:14;100916.34;;;19.77;53.74
62617;BME280;62539;51.190;6.808;2023-02-23T01:08:44;100921.72;;;19.74;53.90
62617;BME280;62539;51.190;6.808;2023-02-23T01:11:16;100918.22;;;19.73;53.85
62617;BME280;62539;51.190;6.808;2023-02-23T01:13:45;100925.25;;;19.73;53.77
62617;BME280;62539;51.190;6.808;2023-02-23T01:16:14;100917.44;;;19.71;53.92
62617;BME280;62539;51.190;6.808;2023-02-23T01:18:42;100916.56;;;19.71;53.97
62617;BME280;62539;51.190;6.808;2023-02-23T01:21:21;100909.66;;;19.68;54.07
62617;BME280;62539;51.190;6.808;2023-02-23T01:23:50;100908.78;;;19.67;53.97
62617;BME280;62539;51.190;6.808;2023-02-23T01:26:18;100908.78;;;19.67;54.07
62617;BME280;62539;51.190;6.808;2023-02-23T01:28:50;100911.47;;;19.66;53.81
62617;BME280;62539;51.190;6.808;2023-02-23T01:31:21;100912.31;;;19.66;53.96
62617;BME280;62539;51.190;6.808;2023-02-23T01:33:55;100916.78;;;19.64;53.99
62617;BME280;62539;51.190;6.808;2023-02-23T01:36:21;100915.94;;;19.64;54.11
62617;BME280;62539;51.190;6.808;2023-02-23T01:38:47;100908.09;;;19.62;54.01
62617;BME280;62539;51.190;6.808;2023-02-23T01:41:14;100912.44;;;19.63;54.01
62617;BME280;62539;51.190;6.808;2023-02-23T01:46:45;100911.75;;;19.58;54.11
62617;BME280;62539;51.190;6.808;2023-02-23T01:49:27;100910.03;;;19.57;54.11
62617;BME280;62539;51.190;6.808;2023-02-23T01:52:02;100907.47;;;19.56;53.93
62617;BME280;62539;51.190;6.808;2023-02-23T01:54:33;100913.56;;;19.56;54.16
62617;BME280;62539;51.190;6.808;2023-02-23T01:57:05;100908.38;;;19.54;54.06
62617;BME280;62539;51.190;6.808;2023-02-23T01:59:42;100907.50;;;19.54;54.17
62617;BME280;62539;51.190;6.808;2023-02-23T02:02:09;100906.72;;;19.52;54.15
62617;BME280;62539;51.190;6.808;2023-02-23T02:04:38;100914.59;;;19.52;54.16
62617;BME280;62539;51.190;6.808;2023-02-23T02:07:15;100903.28;;;19.50;54.22
62617;BME280;62539;51.190;6.808;2023-02-23T02:09:44;100907.69;;;19.49;54.04
62617;BME280;62539;51.190;6.808;2023-02-23T02:12:30;100905.97;;;19.48;54.27
62617;BME280;62539;51.190;6.808;2023-02-23T02:14:57;100906.00;;;19.47;54.30
62617;BME280;62539;51.190;6.808;2023-02-23T02:26:21;100908.97;;;19.37;54.09
62617;BME280;62539;51.190;6.808;2023-02-23T02:40:14;100906.47;;;19.34;54.42
62617;BME280;62539;51.190;6.808;2023-02-23T02:45:54;100900.38;;;19.32;54.56
62617;BME280;62539;51.190;6.808;2023-02-23T02:48:36;100898.69;;;19.31;54.24
62617;BME280;62539;51.190;6.808;2023-02-23T02:51:26;100904.81;;;19.32;54.41
62617;BME280;62539;51.190;6.808;2023-02-23T02:54:38;100895.25;;;19.29;54.45
62617;BME280;62539;51.190;6.808;2023-02-23T02:57:09;100891.69;;;19.30;54.46
62617;BME280;62539;51.190;6.808;2023-02-23T02:59:45;100897.88;;;19.29;54.47
62617;BME280;62539;51.190;6.808;2023-02-23T03:02:34;100890.91;;;19.28;54.43
62617;BME280;62539;51.190;6.808;2023-02-23T03:05:28;100890.97;;;19.27;54.69
62617;BME280;62539;51.190;6.808;2023-02-23T03:08:45;100898.91;;;19.25;54.58
62617;BME280;62539;51.190;6.808;2023-02-23T03:11:39;100904.16;;;19.25;54.53
62617;BME280;62539;51.190;6.808;2023-02-23T03:14:45;100898.97;;;19.23;54.51
62617;BME280;62539;51.190;6.808;2023-02-23T03:18:00;100899.91;;;19.21;54.44
62617;BME280;62539;51.190;6.808;2023-02-23T03:21:25;100905.25;;;19.19;54.53
62617;BME280;62539;51.190;6.808;2023-02-23T03:24:31;100902.66;;;19.18;54.69
62617;BME280;62539;51.190;6.808;2023-02-23T03:27:43;100895.69;;;19.17;54.67
62617;BME280;62539;51.190;6.808;2023-02-23T03:30:46;100899.22;;;19.16;54.67
62617;BME280;62539;51.190;6.808;2023-02-23T03:33:47;100897.50;;;19.15;54.70
62617;BME280;62539;51.190;6.808;2023-02-23T03:36:46;100908.09;;;19.13;54.55
62617;BME280;62539;51.190;6.808;2023-02-23T03:39:58;100902.88;;;19.12;54.54
62617;BME280;62539;51.190;6.808;2023-02-23T03:42:49;100902.97;;;19.08;54.68
62617;BME280;62539;51.190;6.808;2023-02-23T03:45:38;100909.09;;;19.09;54.77
62617;BME280;62539;51.190;6.808;2023-02-23T03:48:24;100905.66;;;19.07;54.74
62617;BME280;62539;51.190;6.808;2023-02-23T03:51:11;100912.66;;;19.08;54.70
62617;BME280;62539;51.190;6.808;2023-02-23T03:54:00;100911.84;;;19.06;54.92
62617;BME280;62539;51.190;6.808;2023-02-23T03:56:54;100915.31;;;19.06;54.70
62617;BME280;62539;51.190;6.808;2023-02-23T03:59:54;100911.84;;;19.06;54.68
62617;BME280;62539;51.190;6.808;2023-02-23T04:02:44;100910.97;;;19.05;54.82
62617;BME280;62539;51.190;6.808;2023-02-23T04:05:34;100910.97;;;19.05;54.89
62617;BME280;62539;51.190;6.808;2023-02-23T04:08:26;100914.50;;;19.04;54.81
62617;BME280;62539;51.190;6.808;2023-02-23T04:11:23;100914.50;;;19.04;54.80
62617;BME280;62539;51.190;6.808;2023-02-23T04:14:37;100913.69;;;19.02;54.58
62617;BME280;62539;51.190;6.808;2023-02-23T04:17:08;100921.59;;;19.02;54.87
62617;BME280;62539;51.190;6.808;2023-02-23T04:19:35;100920.69;;;19.03;54.92
62617;BME280;62539;51.190;6.808;2023-02-23T04:22:00;100922.47;;;19.03;54.82
62617;BME280;62539;51.190;6.808;2023-02-23T04:24:26;100922.47;;;19.03;54.81
62617;BME280;62539;51.190;6.808;2023-02-23T04:26:51;100918.97;;;19.02;54.91
62617;BME280;62539;51.190;6.808;2023-02-23T04:29:16;100925.94;;;19.03;54.91
62617;BME280;62539;51.190;6.808;2023-02-23T04:31:42;100925.13;;;19.01;54.90
62617;BME280;62539;51.190;6.808;2023-02-23T04:34:07;100925.09;;;19.03;54.89
62617;BME280;62539;51.190;6.808;2023-02-23T04:36:33;100925.94;;;19.03;55.09
62617;BME280;62539;51.190;6.808;2023-02-23T04:38:58;100929.38;;;19.05;55.02
62617;BME280;62539;51.190;6.808;2023-02-23T04:41:24;100934.53;;;19.08;55.10
62617;BME280;62539;51.190;6.808;2023-02-23T04:43:49;100933.47;;;19.14;55.12
62617;BME280;62539;51.190;6.808;2023-02-23T04:46:15;100932.38;;;19.20;55.12
62617;BME280;62539;51.190;6.808;2023-02-23T04:48:41;100928.53;;;19.30;54.57
62617;BME280;62539;51.190;6.808;2023-02-23T04:51:06;100931.63;;;19.42;54.80
62617;BME280;62539;51.190;6.808;2023-02-23T04:53:32;100927.66;;;19.55;54.40
62617;BME280;62539;51.190;6.808;2023-02-23T04:55:58;100938.53;;;19.69;54.04
62617;BME280;62539;51.190;6.808;2023-02-23T04:58:24;100932.88;;;19.80;53.80
62617;BME280;62539;51.190;6.808;2023-02-23T05:00:49;100927.31;;;19.90;53.49
62617;BME280;62539;51.190;6.808;2023-02-23T05:03:15;100929.63;;;19.97;53.22
62617;BME280;62539;51.190;6.808;2023-02-23T05:05:42;100927.69;;;20.03;53.09
62617;BME280;62539;51.190;6.808;2023-02-23T05:08:08;100938.06;;;20.07;52.92
62617;BME280;62539;51.190;6.808;2023-02-23T05:10:34;100929.13;;;20.11;52.83
62617;BME280;62539;51.190;6.808;2023-02-23T05:12:59;100936.81;;;20.16;52.75
62617;BME280;62539;51.190;6.808;2023-02-23T05:15:26;100932.25;;;20.21;52.52
62617;BME280;62539;51.190;6.808;2023-02-23T05:17:53;100945.13;;;20.29;52.49
62617;BME280;62539;51.190;6.808;2023-02-23T05:20:20;100936.91;;;20.37;52.39
62617;BME280;62539;51.190;6.808;2023-02-23T05:22:46;100938.38;;;20.44;52.01
62617;BME280;62539;51.190;6.808;2023-02-23T05:25:12;100940.59;;;20.55;51.98
62617;BME280;62539;51.190;6.808;2023-02-23T05:27:38;100943.72;;;20.65;51.78
62617;BME280;62539;51.190;6.808;2023-02-23T05:30:05;100943.34;;;20.74;51.42
62617;BME280;62539;51.190;6.808;2023-02-23T05:32:32;100941.34;;;20.81;51.08
62617;BME280;62539;51.190;6.808;2023-02-23T05:34:59;100952.47;;;20.88;50.99
62617;BME280;62539;51.190;6.808;2023-02-23T05:37:24;100948.91;;;20.89;51.07
62617;BME280;62539;51.190;6.808;2023-02-23T05:39:50;100950.63;;;20.90;50.82
62617;BME280;62539;51.190;6.808;2023-02-23T05:42:15;100957.59;;;20.92;50.69
62617;BME280;62539;51.190;6.808;2023-02-23T05:44:41;100949.72;;;20.91;50.74
62617;BME280;62539;51.190;6.808;2023-02-23T05:47:06;100952.44;;;20.89;51.02
62617;BME280;62539;51.190;6.808;2023-02-23T05:49:32;100951.63;;;20.87;50.62
62617;BME280;62539;51.190;6.808;2023-02-23T05:51:57;100947.34;;;20.84;51.09
62617;BME280;62539;51.190;6.808;2023-02-23T05:54:22;100949.19;;;20.82;51.14
62617;BME280;62539;51.190;6.808;2023-02-23T05:56:48;100952.75;;;20.81;51.08
62617;BME280;62539;51.190;6.808;2023-02-23T05:59:14;100951.03;;;20.80;51.35
62617;BME280;62539;51.190;6.808;2023-02-23T06:01:41;100952.59;;;20.84;51.27
62617;BME280;62539;51.190;6.808;2023-02-23T06:04:07;100961.19;;;20.90;51.28
62617;BME280;62539;51.190;6.808;2023-02-23T06:06:33;100956.53;;;20.96;51.32
62617;BME280;62539;51.190;6.808;2023-02-23T06:08:59;100962.25;;;21.06;51.31
62617;BME280;62539;51.190;6.808;2023-02-23T06:11:25;100965.44;;;21.14;50.97
62617;BME280;62539;51.190;6.808;2023-02-23T06:13:51;100961.59;;;21.22;50.99
62617;BME280;62539;51.190;6.808;2023-02-23T06:16:16;100965.84;;;21.26;50.44
62617;BME280;62539;51.190;6.808;2023-02-23T06:18:42;100970.31;;;21.24;50.46
62617;BME280;62539;51.190;6.808;2023-02-23T06:21:07;100979.16;;;21.23;50.48
62617;BME280;62539;51.190;6.808;2023-02-23T06:23:33;100973.88;;;21.23;50.33
62617;BME280;62539;51.190;6.808;2023-02-23T06:25:58;100969.53;;;21.22;50.34
62617;BME280;62539;51.190;6.808;2023-02-23T06:28:24;100975.72;;;21.21;50.40
62617;BME280;62539;51.190;6.808;2023-02-23T06:30:54;100976.72;;;21.18;50.61
62617;BME280;62539;51.190;6.808;2023-02-23T06:33:21;100973.34;;;21.14;50.40
62617;BME280;62539;51.190;6.808;2023-02-23T06:35:47;100983.09;;;21.12;50.67
62617;BME280;62539;51.190;6.808;2023-02-23T06:38:12;100978.88;;;21.08;50.55
62617;BME280;62539;51.190;6.808;2023-02-23T06:40:39;100986.91;;;21.05;50.82
62617;BME280;62539;51.190;6.808;2023-02-23T06:43:05;100990.59;;;21.01;50.82
62617;BME280;62539;51.190;6.808;2023-02-23T06:45:31;100986.34;;;20.98;51.13
62617;BME280;62539;51.190;6.808;2023-02-23T06:47:59;100994.16;;;21.00;51.06
62617;BME280;62539;51.190;6.808;2023-02-23T06:50:26;100994.97;;;21.02;51.25
62617;BME280;62539;51.190;6.808;2023-02-23T06:52:51;100992.19;;;21.05;51.08
62617;BME280;62539;51.190;6.808;2023-02-23T06:55:17;100998.22;;;21.09;51.07
62617;BME280;62539;51.190;6.808;2023-02-23T06:57:43;101003.03;;;21.20;51.59
62617;BME280;62539;51.190;6.808;2023-02-23T07:00:10;101014.81;;;21.32;51.52
62617;BME280;62539;51.190;6.808;2023-02-23T07:02:41;101012.72;;;21.40;51.57
62617;BME280;62539;51.190;6.808;2023-02-23T07:05:08;101012.47;;;21.46;51.39
62617;BME280;62539;51.190;6.808;2023-02-23T07:07:34;101014.03;;;21.50;51.52
62617;BME280;62539;51.190;6.808;2023-02-23T07:10:00;101018.34;;;21.53;51.49
62617;BME280;62539;51.190;6.808;2023-02-23T07:12:25;101018.34;;;21.53;51.49
62617;BME280;62539;51.190;6.808;2023-02-23T07:14:50;101025.41;;;21.52;51.72
62617;BME280;62539;51.190;6.808;2023-02-23T07:17:16;101031.69;;;21.50;51.59
62617;BME280;62539;51.190;6.808;2023-02-23T07:19:42;101029.16;;;21.47;51.39
62617;BME280;62539;51.190;6.808;2023-02-23T07:22:07;101034.59;;;21.43;51.20
62617;BME280;62539;51.190;6.808;2023-02-23T07:24:33;101027.72;;;21.39;51.94
62617;BME280;62539;51.190;6.808;2023-02-23T07:26:58;101031.41;;;21.35;51.83
62617;BME280;62539;51.190;6.808;2023-02-23T07:29:23;101035.09;;;21.31;52.09
62617;BME280;62539;51.190;6.808;2023-02-23T07:31:49;101031.66;;;21.29;51.90
62617;BME280;62539;51.190;6.808;2023-02-23T07:34:15;101043.06;;;21.29;51.75
62617;BME280;62539;51.190;6.808;2023-02-23T07:36:40;101041.84;;;21.38;51.90
62617;BME280;62539;51.190;6.808;2023-02-23T07:39:06;101047.38;;;21.53;51.66
62617;BME280;62539;51.190;6.808;2023-02-23T07:41:31;101047.41;;;21.73;51.52
62617;BME280;62539;51.190;6.808;2023-02-23T07:43:58;101043.03;;;21.93;51.20
62617;BME280;62539;51.190;6.808;2023-02-23T07:46:24;101054.50;;;22.13;50.58
62617;BME280;62539;51.190;6.808;2023-02-23T07:48:50;101048.38;;;22.31;50.32
62617;BME280;62539;51.190;6.808;2023-02-23T07:51:16;101053.81;;;22.48;50.03
62617;BME280;62539;51.190;6.808;2023-02-23T07:53:43;101051.31;;;22.64;49.75
62617;BME280;62539;51.190;6.808;2023-02-23T07:56:09;101050.66;;;22.78;49.36
62617;BME280;62539;51.190;6.808;2023-02-23T07:58:40;101057.94;;;22.92;49.17
62617;BME280;62539;51.190;6.808;2023-02-23T08:01:08;101063.63;;;23.01;48.57
62617;BME280;62539;51.190;6.808;2023-02-23T08:03:35;101062.47;;;23.07;47.93
62617;BME280;62539;51.190;6.808;2023-02-23T08:06:01;101056.25;;;23.08;47.86
62617;BME280;62539;51.190;6.808;2023-02-23T08:08:26;101060.75;;;23.06;48.15
62617;BME280;62539;51.190;6.808;2023-02-23T08:11:03;101065.31;;;23.02;48.23
62617;BME280;62539;51.190;6.808;2023-02-23T08:13:29;101073.50;;;22.98;48.47
62617;BME280;62539;51.190;6.808;2023-02-23T08:15:55;101073.81;;;22.92;48.57
62617;BME280;62539;51.190;6.808;2023-02-23T08:18:21;101070.53;;;22.86;48.35
62617;BME280;62539;51.190;6.808;2023-02-23T08:20:47;101065.38;;;22.83;48.70
62617;BME280;62539;51.190;6.808;2023-02-23T08:23:12;101077.09;;;22.78;48.88
62617;BME280;62539;51.190;6.808;2023-02-23T08:25:38;101070.38;;;22.70;48.62
62617;BME280;62539;51.190;6.808;2023-02-23T08:28:04;101079.53;;;22.63;49.18
62617;BME280;62539;51.190;6.808;2023-02-23T08:30:32;101084.31;;;22.55;48.78
62617;BME280;62539;51.190;6.808;2023-02-23T08:32:57;101093.41;;;22.49;49.13
62617;BME280;62539;51.190;6.808;2023-02-23T08:35:24;101095.28;;;22.47;49.26
62617;BME280;62539;51.190;6.808;2023-02-23T08:37:49;101090.78;;;22.49;49.48
62617;BME280;62539;51.190;6.808;2023-02-23T08:40:15;101098.41;;;22.55;49.18
62617;BME280;62539;51.190;6.808;2023-02-23T08:42:42;101094.56;;;22.63;49.37
62617;BME280;62539;51.190;6.808;2023-02-23T08:45:09;101099.41;;;22.72;49.14
62617;BME280;62539;51.190;6.808;2023-02-23T08:47:35;101101.63;;;22.81;49.19
62617;BME280;62539;51.190;6.808;2023-02-23T08:50:00;101098.53;;;22.90;48.44
62617;BME280;62539;51.190;6.808;2023-02-23T08:52:26;101098.88;;;23.02;48.27
62617;BME280;62539;51.190;6.808;2023-02-23T08:54:53;101102.66;;;23.15;48.06
62617;BME280;62539;51.190;6.808;2023-02-23T08:57:19;101105.66;;;23.27;47.93
62617;BME280;62539;51.190;6.808;2023-02-23T08:59:44;101105.19;;;23.36;47.80
62617;BME280;62539;51.190;6.808;2023-02-23T09:02:12;101099.59;;;23.42;47.81
62617;BME280;62539;51.190;6.808;2023-02-23T09:04:38;101103.03;;;23.44;47.25
62617;BME280;62539;51.190;6.808;2023-02-23T09:07:07;101104.81;;;23.44;47.23
62617;BME280;62539;51.190;6.808;2023-02-23T09:09:33;101111.19;;;23.40;47.65
62617;BME280;62539;51.190;6.808;2023-02-23T09:11:59;101111.44;;;23.35;47.55
62617;BME280;62539;51.190;6.808;2023-02-23T09:14:25;101108.16;;;23.30;47.62
62617;BME280;62539;51.190;6.808;2023-02-23T09:16:51;101106.66;;;23.24;47.62
62617;BME280;62539;51.190;6.808;2023-02-23T09:19:16;101110.44;;;23.18;47.87
62617;BME280;62539;51.190;6.808;2023-02-23T09:21:42;101109.81;;;23.13;47.75
62617;BME280;62539;51.190;6.808;2023-02-23T09:24:08;101112.75;;;23.07;47.95
62617;BME280;62539;51.190;6.808;2023-02-23T09:26:33;101119.13;;;23.03;47.96
62617;BME280;62539;51.190;6.808;2023-02-23T09:29:04;101122.69;;;23.02;47.95
62617;BME280;62539;51.190;6.808;2023-02-23T09:31:31;101118.97;;;23.06;48.21
62617;BME280;62539;51.190;6.808;2023-02-23T09:33:57;101114.06;;;23.16;48.26
62617;BME280;62539;51.190;6.808;2023-02-23T09:36:25;101124.09;;;23.28;47.68
62617;BME280;62539;51.190;6.808;2023-02-23T09:38:52;101124.34;;;23.41;47.54
62617;BME280;62539;51.190;6.808;2023-02-23T09:41:45;101125.31;;;23.58;47.64
62617;BME280;62539;51.190;6.808;2023-02-23T09:44:56;101128.13;;;23.72;47.04
62617;BME280;62539;51.190;6.808;2023-02-23T09:50:26;101139.94;;;23.83;46.58
62617;BME280;62539;51.190;6.808;2023-02-23T09:52:58;101136.53;;;23.81;46.71
62617;BME280;62539;51.190;6.808;2023-02-23T09:55:26;101135.91;;;23.75;46.58
62617;BME280;62539;51.190;6.808;2023-02-23T09:57:52;101142.34;;;23.70;46.50
62617;BME280;62539;51.190;6.808;2023-02-23T10:00:24;101139.81;;;23.68;46.95
62617;BME280;62539;51.190;6.808;2023-02-23T10:03:17;101150.16;;;23.73;46.95
62617;BME280;62539;51.190;6.808;2023-02-23T10:05:51;101153.34;;;23.80;46.50
62617;BME280;62539;51.190;6.808;2023-02-23T10:08:36;101147.72;;;23.86;46.64
62617;BME280;62539;51.190;6.808;2023-02-23T10:11:22;101154.66;;;23.88;46.23
62617;BME280;62539;51.190;6.808;2023-02-23T10:13:57;101153.88;;;23.86;46.21
62617;BME280;62539;51.190;6.808;2023-02-23T10:17:08;101155.66;;;23.86;46.21
62617;BME280;62539;51.190;6.808;2023-02-23T10:20:05;101165.50;;;23.84;45.97
62617;BME280;62539;51.190;6.808;2023-02-23T10:22:43;101163.84;;;23.81;45.94
62617;BME280;62539;51.190;6.808;2023-02-23T10:25:33;101170.50;;;23.72;46.11
62617;BME280;62539;51.190;6.808;2023-02-23T10:28:02;101169.88;;;23.67;46.56
62617;BME280;62539;51.190;6.808;2023-02-23T10:30:31;101177.34;;;23.59;46.75
62617;BME280;62539;51.190;6.808;2023-02-23T10:33:00;101178.72;;;23.48;46.81
62617;BME280;62539;51.190;6.808;2023-02-23T10:35:49;101181.72;;;23.41;47.18
62617;BME280;62539;51.190;6.808;2023-02-23T10:38:19;101183.59;;;23.39;46.93
62617;BME280;62539;51.190;6.808;2023-02-23T10:40:49;101179.09;;;23.41;47.37
62617;BME280;62539;51.190;6.808;2023-02-23T10:43:19;101185.88;;;23.46;47.25
62617;BME280;62539;51.190;6.808;2023-02-23T10:45:50;101185.59;;;23.53;47.09
62617;BME280;62539;51.190;6.808;2023-02-23T10:48:23;101188.63;;;23.62;46.67
62617;BME280;62539;51.190;6.808;2023-02-23T10:50:54;101187.22;;;23.73;46.80
62617;BME280;62539;51.190;6.808;2023-02-23T10:53:34;101184.06;;;23.84;46.57
62617;BME280;62539;51.190;6.808;2023-02-23T10:56:06;101183.72;;;23.90;46.01
62617;BME280;62539;51.190;6.808;2023-02-23T10:58:44;101181.78;;;23.93;45.90
62617;BME280;62539;51.190;6.808;2023-02-23T11:01:38;101181.00;;;23.91;46.17
62617;BME280;62539;51.190;6.808;2023-02-23T11:04:26;101176.84;;;23.86;45.96
62617;BME280;62539;51.190;6.808;2023-02-23T11:07:15;101183.44;;;23.78;46.01
62617;BME280;62539;51.190;6.808;2023-02-23T11:09:45;101183.81;;;23.71;46.43
62617;BME280;62539;51.190;6.808;2023-02-23T11:12:24;101187.00;;;23.60;46.52
62617;BME280;62539;51.190;6.808;2023-02-23T11:14:56;101189.31;;;23.48;46.63
62617;BME280;62539;51.190;6.808;2023-02-23T11:17:36;101187.16;;;23.38;46.64
62617;BME280;62539;51.190;6.808;2023-02-23T11:20:45;101191.19;;;23.27;47.21
62617;BME280;62539;51.190;6.808;2023-02-23T11:23:11;101190.63;;;23.20;47.13
62617;BME280;62539;51.190;6.808;2023-02-23T11:25:44;101186.97;;;23.23;47.72
62617;BME280;62539;51.190;6.808;2023-02-23T11:28:19;101184.91;;;23.30;47.56
62617;BME280;62539;51.190;6.808;2023-02-23T11:30:49;101193.19;;;23.41;47.12
62617;BME280;62539;51.190;6.808;2023-02-23T11:33:16;101187.28;;;23.54;46.82
62617;BME280;62539;51.190;6.808;2023-02-23T11:35:56;101184.03;;;23.66;46.76
62617;BME280;62539;51.190;6.808;2023-02-23T11:38:26;101184.38;;;23.77;46.73
62617;BME280;62539;51.190;6.808;2023-02-23T11:41:17;101181.22;;;23.87;46.26
62617;BME280;62539;51.190;6.808;2023-02-23T11:43:56;101176.53;;;23.92;45.93
62617;BME280;62539;51.190;6.808;2023-02-23T11:46:24;101179.97;;;23.94;46.23
62617;BME280;62539;51.190;6.808;2023-02-23T11:48:55;101171.09;;;23.95;46.22
62617;BME280;62539;51.190;6.808;2023-02-23T11:51:35;101172.81;;;23.96;45.76
62617;BME280;62539;51.190;6.808;2023-02-23T11:54:06;101178.75;;;24.01;46.20
62617;BME280;62539;51.190;6.808;2023-02-23T11:56:47;101174.84;;;24.08;45.89
62617;BME280;62539;51.190;6.808;2023-02-23T11:59:22;101171.81;;;24.16;45.89
62617;BME280;62539;51.190;6.808;2023-02-23T12:02:00;101169.69;;;24.23;45.54
62617;BME280;62539;51.190;6.808;2023-02-23T12:04:34;101171.06;;;24.30;45.46
62617;BME280;62539;51.190;6.808;2023-02-23T12:07:22;101172.88;;;24.30;45.36
62617;BME280;62539;51.190;6.808;2023-02-23T12:13:17;101167.28;;;24.18;45.73
62617;BME280;62539;51.190;6.808;2023-02-23T12:21:38;101175.78;;;23.72;46.33
62617;BME280;62539;51.190;6.808;2023-02-23T12:24:18;101175.00;;;23.53;46.92
62617;BME280;62539;51.190;6.808;2023-02-23T12:26:57;101172.31;;;23.35;47.03
62617;BME280;62539;51.190;6.808;2023-02-23T12:29:41;101166.00;;;23.18;47.27
62617;BME280;62539;51.190;6.808;2023-02-23T12:32:18;101175.47;;;23.05;47.84
62617;BME280;62539;51.190;6.808;2023-02-23T12:34:59;101181.19;;;22.96;47.76
62617;BME280;62539;51.190;6.808;2023-02-23T12:37:40;101168.31;;;22.88;47.74
62617;BME280;62539;51.190;6.808;2023-02-23T12:40:18;101169.47;;;22.82;46.95
62617;BME280;62539;51.190;6.808;2023-02-23T12:42:57;101175.81;;;22.78;46.85
62617;BME280;62539;51.190;6.808;2023-02-23T12:45:54;101183.25;;;22.70;46.92
62617;BME280;62539;51.190;6.808;2023-02-23T12:51:49;101176.59;;;22.61;47.00
62617;BME280;62539;51.190;6.808;2023-02-23T12:54:18;101171.53;;;22.56;46.84
62617;BME280;62539;51.190;6.808;2023-02-23T13:08:54;101173.81;;;22.43;48.02
62617;BME280;62539;51.190;6.808;2023-02-23T13:18:23;101173.25;;;22.37;48.20
62617;BME280;62539;51.190;6.808;2023-02-23T13:21:36;101180.38;;;22.35;48.38
62617;BME280;62539;51.190;6.808;2023-02-23T13:24:25;101184.88;;;22.32;48.76
62617;BME280;62539;51.190;6.808;2023-02-23T13:27:25;101179.63;;;22.31;49.17
62617;BME280;62539;51.190;6.808;2023-02-23T13:29:58;101184.75;;;22.36;49.56
62617;BME280;62539;51.190;6.808;2023-02-23T13:32:27;101181.03;;;22.40;49.90
62617;BME280;62539;51.190;6.808;2023-02-23T13:34:58;101188.72;;;22.46;50.33
62617;BME280;62539;51.190;6.808;2023-02-23T13:42:58;101178.75;;;22.72;50.50
62617;BME280;62539;51.190;6.808;2023-02-23T13:45:41;101176.63;;;22.80;50.53
62617;BME280;62539;51.190;6.808;2023-02-23T13:51:04;101182.25;;;22.92;50.43
62617;BME280;62539;51.190;6.808;2023-02-23T13:54:01;101183.06;;;22.94;50.58
62617;BME280;62539;51.190;6.808;2023-02-23T13:56:35;101179.47;;;22.95;50.35
62617;BME280;62539;51.190;6.808;2023-02-23T13:59:14;101180.31;;;22.95;50.43
62617;BME280;62539;51.190;6.808;2023-02-23T14:01:44;101182.03;;;22.96;50.66
62617;BME280;62539;51.190;6.808;2023-02-23T14:06:53;101189.91;;;22.98;51.21
62617;BME280;62539;51.190;6.808;2023-02-23T14:09:34;101192.47;;;22.99;51.07
62617;BME280;62539;51.190;6.808;2023-02-23T14:22:34;101193.50;;;22.97;51.42
62617;BME280;62539;51.190;6.808;2023-02-23T14:28:00;101191.91;;;22.93;50.93
62617;BME280;62539;51.190;6.808;2023-02-23T14:30:54;101193.91;;;22.87;50.07
62617;BME280;62539;51.190;6.808;2023-02-23T14:33:50;101192.47;;;22.80;50.31
62617;BME280;62539;51.190;6.808;2023-02-23T14:41:23;101199.13;;;22.70;50.35
62617;BME280;62539;51.190;6.808;2023-02-23T14:43:58;101201.91;;;22.67;50.34
62617;BME280;62539;51.190;6.808;2023-02-23T14:46:30;101196.75;;;22.64;50.00
62617;BME280;62539;51.190;6.808;2023-02-23T14:49:04;101197.69;;;22.63;50.39
62617;BME280;62539;51.190;6.808;2023-02-23T14:51:40;101177.47;;;22.61;50.40
62617;BME280;62539;51.190;6.808;2023-02-23T14:54:26;101184.75;;;22.56;49.72